Impacts TAF Board
For situational awareness. Not to be used for flight planning purposes.
IDs:

KLAS - Las Vegas/McCarran I, NV, US

Issued at 0530 UTC 23 Feb 2019
Updated at 0721 UTC 23 Feb 2019
Potential Impact None Slight Moderate High
Time<<23/20Z 23/21Z 23/22Z 23/23Z 24/00Z 24/01Z 24/02Z 24/03Z 24/04Z 24/05Z 24/06Z 24/07Z 24/08Z>>
Type PRVL PRVL PRVL PRVL PRVL PRVL PRVL PRVL PRVL PRVL PRVL PRVL PRVL
VIS >6 >6 >6 >6 >6 >6 >6 >6 >6 >6 >6 >6 >6
CIG -- -- -- -- -- -- -- -- 250 250 250 250 250
Cover SCT SCT SCT SCT SCT SCT SCT SCT BKN BKN BKN BKN BKN
FltCat VFR VFR VFR VFR VFR VFR VFR VFR VFR VFR VFR VFR VFR
WX -- -- -- -- -- -- -- -- -- -- -- -- --
WDir VRB VRB VRB VRB VRB VRB VRB VRB 150 150 150 150 150
WSpd 5 5 5 5 5 5 5 5 6 6 6 6 6
WGst -- -- -- -- -- -- -- -- -- -- -- -- --
Raw TAF
KLAS 230530Z 2306/2412 32006KT P6SM FEW250
  FM231200 VRB05KT P6SM SCT250
  FM240400 15006KT P6SM BKN250
  FM241000 VRB05KT P6SM BKN250


METAR Board
Radar Display
Forecast Discussion
For situational awareness. Not to be used for flight planning purposes.